Time;durP1;ratioP1;P1;durP2;ratioP2;P2;SDS_P1;SDS_P2;PMS_P1;PMS_P2;Temp;Humidity;BMP_temperature;BMP_pressure;BME280_temperature;BME280_humidity;BME280_pressure;Samples;Min_cycle;Max_cycle;Signal;HPM_P1;HPM_P2
2023/12/06 00:00:25;;;;;;;115.03;44.80;;;;;;;-2.62;100.00;100824.53;4875513;28;20043;-86
2023/12/06 00:02:51;;;;;;;131.35;51.90;;;-0.80;99.90;;;-2.59;100.00;100832.28;4828721;29;20036;-86
2023/12/06 00:05:17;;;;;;;109.85;45.03;;;;;;;-2.58;100.00;100832.31;4776393;29;21537;-87
2023/12/06 00:07:50;;;;;;;115.40;46.38;;;-0.80;99.90;;;-2.55;100.00;100834.03;4806387;29;20523;-86
2023/12/06 00:10:21;;;;;;;117.15;49.03;;;-0.80;99.90;;;-2.56;100.00;100832.31;4773800;29;20056;-86
2023/12/06 00:12:59;;;;;;;122.70;49.78;;;-0.80;99.90;;;-2.50;100.00;100837.53;4787594;29;20130;-87
2023/12/06 00:15:25;;;;;;;119.95;48.88;;;;;;;-2.52;100.00;100836.66;4813361;29;20060;-86
2023/12/06 00:17:51;;;;;;;97.18;40.95;;;-0.70;99.90;;;-2.50;100.00;100837.53;4830126;29;21581;-87
2023/12/06 00:20:30;;;;;;;120.35;49.85;;;-0.70;99.90;;;-2.50;99.92;100832.38;4800347;29;20039;-86
2023/12/06 00:23:06;;;;;;;128.77;52.15;;;;;;;-2.48;99.84;100826.38;4794831;29;20069;-86
2023/12/06 00:25:32;;;;;;;138.18;53.40;;;;;;;-2.47;99.80;100832.41;4789032;29;20044;-86
2023/12/06 00:28:12;;;;;;;127.53;51.78;;;-0.70;99.90;;;-2.48;99.23;100825.53;4808770;29;20057;-87
2023/12/06 00:30:38;;;;;;;123.43;50.63;;;;;;;-2.48;99.62;100831.53;4816246;29;20048;-87
2023/12/06 00:33:11;;;;;;;97.97;41.55;;;-0.60;99.90;;;-2.51;99.61;100828.06;4805188;29;20051;-85
2023/12/06 00:36:08;;;;;;;123.78;52.05;;;-0.70;99.90;;;-2.53;99.71;100822.03;4795316;29;20042;-86
2023/12/06 00:38:33;;;;;;;125.50;49.67;;;-0.70;99.90;;;-2.53;99.89;100822.91;4784674;29;20068;-86
2023/12/06 00:41:02;;;;;;;141.93;55.70;;;-0.70;99.90;;;-2.50;99.96;100825.50;4885226;28;20350;-86
2023/12/06 00:43:33;;;;;;;131.82;50.30;;;-0.70;99.90;;;-2.48;99.04;100830.69;4874306;28;22126;-87
2023/12/06 00:46:02;;;;;;;130.57;53.35;;;;;;;-2.49;99.61;100818.63;4894174;28;20040;-88
2023/12/06 00:48:28;;;;;;;142.98;54.33;;;;;;;-2.47;99.03;100822.94;4919396;28;20508;-86
2023/12/06 00:50:54;;;;;;;132.73;55.03;;;;;;;-2.44;99.48;100832.44;4888545;28;20118;-87
2023/12/06 00:53:33;;;;;;;150.13;58.15;;;-1.10;99.90;;;-2.41;99.67;100823.84;4864630;28;20044;-86
2023/12/06 00:56:12;;;;;;;140.93;57.72;;;;;;;-2.43;99.32;100820.41;4868568;28;20037;-87
2023/12/06 00:58:38;;;;;;;127.45;49.20;;;-0.70;99.90;;;-2.44;99.40;100822.13;4877655;28;20547;-87
2023/12/06 01:01:12;;;;;;;120.95;51.25;;;-0.70;99.90;;;-2.48;99.26;100815.22;4875770;28;20038;-86
2023/12/06 01:03:40;;;;;;;107.13;41.78;;;;;;;-2.45;98.73;100819.53;4888128;28;20039;-85
2023/12/06 01:06:19;;;;;;;80.60;32.92;;;;;;;-2.51;99.36;100816.03;4868071;28;20041;-85
2023/12/06 01:08:45;;;;;;;145.35;55.80;;;-0.70;99.90;;;-2.46;99.57;100818.66;4869526;28;20053;-86
2023/12/06 01:11:11;;;;;;;137.05;55.78;;;-0.70;99.90;;;-2.45;99.31;100820.38;4872051;28;20033;-86
2023/12/06 01:13:48;;;;;;;136.20;52.30;;;;;;;-2.44;99.46;100813.50;4884287;28;20099;-86
2023/12/06 01:16:15;;;;;;;103.30;42.20;;;;;;;-2.42;100.00;100816.97;4911498;28;20042;-86
2023/12/06 01:19:03;;;;;;;134.45;53.53;;;-0.70;99.90;;;-2.41;99.78;100814.41;4858210;28;20035;-87
2023/12/06 01:21:32;;;;;;;129.82;51.63;;;;;;;-2.47;99.39;100825.53;4859588;28;20040;-87
2023/12/06 01:24:23;;;;;;;70.72;26.27;;;-0.70;99.90;;;-2.49;100.00;100814.31;4874523;28;20050;-87
2023/12/06 01:26:51;;;;;;;129.60;50.70;;;-0.70;99.90;;;-2.48;99.45;100823.81;4864278;28;21458;-85
2023/12/06 01:29:17;;;;;;;149.10;54.90;;;-0.70;99.90;;;-2.43;99.61;100820.41;4898301;28;20053;-84
2023/12/06 01:31:43;;;;;;;133.65;53.15;;;-0.70;99.90;;;-2.43;99.44;100823.84;4900250;28;20042;-84
2023/12/06 01:34:32;;;;;;;115.10;43.65;;;-0.60;99.90;;;-2.40;99.54;100825.56;4912087;28;20054;-87
2023/12/06 01:37:00;;;;;;;148.88;56.63;;;-0.60;99.90;;;-2.41;100.00;100831.59;4871637;28;20065;-85
2023/12/06 01:39:26;;;;;;;120.35;43.60;;;-0.70;99.90;;;-2.43;99.75;100817.81;4933177;28;20049;-86
2023/12/06 01:42:02;;;;;;;;;;;;;;;;;;;;;
2023/12/06 01:44:28;;;;;;;147.00;59.72;;;-0.70;99.90;;;-2.40;100.00;100820.41;4890797;28;20460;-85
2023/12/06 01:46:54;;;;;;;148.25;58.42;;;-0.60;99.90;;;-2.41;100.00;100810.97;4910452;28;20035;-85
2023/12/06 01:49:31;;;;;;;130.88;50.03;;;-0.60;99.90;;;-2.38;100.00;100819.56;4905204;28;20042;-85
2023/12/06 01:51:59;;;;;;;133.82;54.92;;;-0.60;99.90;;;-2.36;99.62;100823.03;4916958;28;20049;-85
2023/12/06 01:54:30;;;;;;;144.20;54.95;;;;;;;-2.34;99.45;100825.63;4882927;28;20041;-84
2023/12/06 01:57:07;;;;;;;;;;;;;;;;;;;;;
2023/12/06 01:59:40;;;;;;;135.25;52.28;;;-1.60;99.90;;;-2.38;99.52;100817.00;4917066;28;20057;-85
2023/12/06 02:02:14;;;;;;;131.00;54.92;;;-0.60;99.90;;;-2.34;99.59;100823.03;4860829;28;20038;-85
2023/12/06 02:04:43;;;;;;;124.00;50.92;;;-0.60;99.90;;;-2.37;99.45;100823.91;4887337;28;20062;-86
2023/12/06 02:07:21;;;;;;;126.18;51.58;;;-0.60;99.90;;;-2.37;100.00;100818.75;4899817;28;20113;-86
2023/12/06 02:09:49;;;;;;;131.27;53.05;;;-0.60;99.90;;;-2.38;99.95;100821.28;4926740;28;20040;-85
2023/12/06 02:12:15;;;;;;;128.23;51.78;;;-0.60;99.90;;;-2.36;99.67;100819.59;4896717;28;20081;-85
2023/12/06 02:15:01;;;;;;;79.97;28.90;;;-0.60;99.90;;;-2.39;100.00;100827.31;4879891;28;20046;-87
2023/12/06 02:17:33;;;;;;;132.73;53.75;;;-0.60;99.90;;;-2.36;100.00;100824.75;4908351;28;20047;-86
2023/12/06 02:19:59;;;;;;;134.85;55.15;;;;;;;-2.35;99.71;100827.34;4872370;28;20042;-85
2023/12/06 02:22:29;;;;;;;123.53;45.75;;;;;;;-2.31;100.00;100825.63;4909171;28;20393;-86
2023/12/06 02:25:01;;;;;;;130.82;51.17;;;;;;;-2.35;99.78;100829.06;4882829;28;20539;-86
2023/12/06 02:27:33;;;;;;;138.25;51.72;;;;;;;-2.39;100.00;100828.19;4916070;28;20100;-86
2023/12/06 02:30:02;;;;;;;122.93;52.40;;;;;;;-2.37;100.00;100829.06;4873130;28;20152;-86
2023/12/06 02:32:28;;;;;;;118.90;49.63;;;-0.60;99.90;;;-2.46;100.00;100821.25;4879093;28;20064;-86
2023/12/06 02:35:04;;;;;;;112.70;39.25;;;-0.60;99.90;;;-2.42;100.00;100822.97;4869315;28;20551;-86
2023/12/06 02:37:34;;;;;;;138.38;56.30;;;-0.60;99.90;;;-2.38;100.00;100823.88;4851699;28;20030;-86
2023/12/06 02:40:21;;;;;;;127.90;54.00;;;;;;;-2.39;99.93;100823.00;4902085;28;20034;-86
2023/12/06 02:42:47;;;;;;;131.90;52.88;;;0.20;99.90;;;-2.37;100.00;100823.03;4892769;28;20105;-87
2023/12/06 02:45:13;;;;;;;134.45;53.97;;;-0.60;99.90;;;-2.37;100.00;100813.56;4882857;28;20054;-86
2023/12/06 02:47:42;;;;;;;134.20;54.22;;;-0.60;99.90;;;-2.30;100.00;100819.66;4971190;28;20034;-86
2023/12/06 02:50:17;;;;;;;136.68;53.63;;;;;;;-2.31;100.00;100821.38;4893361;28;20062;-87
2023/12/06 02:52:43;;;;;;;135.10;55.65;;;-0.50;99.90;;;-2.32;100.00;100816.19;4873618;28;21344;-86
2023/12/06 02:55:11;;;;;;;134.30;53.25;;;-0.50;99.90;;;-2.27;100.00;100827.38;4864381;28;20062;-86
2023/12/06 02:57:46;;;;;;;150.77;55.60;;;;;;;-2.25;99.54;100817.94;4874521;28;20044;-86
2023/12/06 03:00:13;;;;;;;132.63;52.20;;;;;;;-2.24;99.41;100821.41;4875957;28;20053;-85
2023/12/06 03:02:51;;;;;;;108.13;43.45;;;;;;;-2.29;99.37;100814.50;4871339;28;20035;-86
2023/12/06 03:05:25;;;;;;;129.55;49.55;;;-0.50;99.90;;;-2.27;99.66;100825.69;4898552;28;20042;-86
2023/12/06 03:07:51;;;;;;;135.70;53.38;;;-0.50;99.90;;;-2.27;99.56;100810.22;4880404;28;20059;-85
2023/12/06 03:10:17;;;;;;;138.82;55.00;;;-0.50;99.90;;;-2.24;99.48;100813.69;4856483;28;20062;-86
2023/12/06 03:12:43;;;;;;;142.18;55.72;;;-0.50;99.90;;;-2.21;98.77;100811.09;4869972;28;20044;-85
2023/12/06 03:15:09;;;;;;;135.02;54.08;;;-0.50;99.90;;;-2.21;99.20;100811.09;4816295;28;20039;-85
2023/12/06 03:17:35;;;;;;;117.75;44.63;;;-0.50;99.90;;;-2.21;98.84;100811.97;4824444;28;20114;-85
2023/12/06 03:20:08;;;;;;;130.55;53.72;;;;;;;-2.24;99.11;100804.22;4822287;28;20123;-85
2023/12/06 03:22:34;;;;;;;146.18;53.55;;;-0.50;99.90;;;-2.22;98.83;100802.50;4869829;28;20724;-85
2023/12/06 03:25:00;;;;;;;135.00;53.90;;;-0.50;99.90;;;-2.22;98.97;100796.50;4883784;28;20050;-85
2023/12/06 03:27:33;;;;;;;135.98;53.58;;;-0.50;99.90;;;-2.22;98.90;100799.06;4920908;28;20729;-85
2023/12/06 03:30:03;;;;;;;128.80;52.08;;;-0.50;99.90;;;-2.21;99.13;100805.94;4890326;28;21184;-85
2023/12/06 03:32:29;;;;;;;137.05;51.60;;;-0.50;99.90;;;-2.22;99.02;100806.81;4917195;28;20042;-85
2023/12/06 03:34:54;;;;;;;136.23;51.95;;;-0.50;99.90;;;-2.23;99.04;100810.22;4896861;28;20146;-84
2023/12/06 03:37:26;;;;;;;135.90;54.55;;;;;;;-2.20;98.62;100810.25;4899380;28;20054;-85
2023/12/06 03:39:51;;;;;;;122.18;50.15;;;-0.50;99.90;;;-2.20;98.78;100805.06;4927750;28;20047;-84
2023/12/06 03:42:17;;;;;;;131.05;51.90;;;-0.50;99.90;;;-2.23;98.47;100805.06;4915543;28;20030;-85
2023/12/06 03:44:43;;;;;;;129.63;53.55;;;;;;;-2.21;99.38;100803.38;4883638;28;20045;-84
2023/12/06 03:47:10;;;;;;;140.00;56.30;;;;;;;-2.16;98.78;100796.50;4942663;28;20046;-85
2023/12/06 03:49:44;;;;;;;141.95;56.38;;;-0.40;99.90;;;-2.17;98.88;100790.50;4905498;28;20042;-85
2023/12/06 03:52:11;;;;;;;131.32;53.05;;;;;;;-2.20;99.18;100805.06;4860454;28;20076;-85
2023/12/06 03:54:37;;;;;;;136.48;52.05;;;;;;;-2.21;99.37;100804.22;4882229;28;20031;-86
2023/12/06 03:57:04;;;;;;;129.32;53.88;;;-0.50;99.90;;;-2.25;99.21;100801.63;4897767;28;20144;-84
2023/12/06 03:59:35;;;;;;;142.93;54.42;;;-0.50;99.90;;;-2.21;99.07;100804.22;4866288;28;20050;-84
2023/12/06 04:02:01;;;;;;;138.80;54.97;;;;;;;-2.23;99.37;100805.06;4906812;28;20054;-86
2023/12/06 04:04:37;;;;;;;141.13;55.13;;;-0.50;99.90;;;-2.24;99.47;100805.94;4902667;28;20093;-86
2023/12/06 04:07:03;;;;;;;143.25;55.72;;;-0.50;99.90;;;-2.20;99.61;100805.97;4880793;28;20034;-85
2023/12/06 04:09:32;;;;;;;126.18;48.38;;;;;;;-2.20;99.51;100805.97;4887480;28;20046;-86
2023/12/06 04:12:13;;;;;;;137.48;56.17;;;-0.50;99.90;;;-2.18;99.47;100813.69;4904038;28;20078;-85
2023/12/06 04:14:40;;;;;;;140.02;54.97;;;-0.50;99.90;;;-2.21;99.80;100803.38;4859779;28;20046;-84
2023/12/06 04:17:11;;;;;;;115.85;44.38;;;;;;;-2.21;99.80;100806.81;4908569;28;20037;-84
2023/12/06 04:19:40;;;;;;;149.85;54.78;;;-0.50;99.90;;;-2.23;100.00;100817.97;4911670;28;20038;-85
2023/12/06 04:22:20;;;;;;;134.88;52.75;;;;;;;-2.19;99.89;100817.16;4860868;28;20043;-85
2023/12/06 04:24:46;;;;;;;143.30;55.22;;;-0.40;99.90;;;-2.20;100.00;100810.25;4929472;28;20059;-84
2023/12/06 04:27:21;;;;;;;130.75;48.05;;;;;;;-2.20;100.00;100808.56;4849602;28;20030;-86
2023/12/06 04:30:01;;;;;;;;;;;;;;;;;;;;;
2023/12/06 04:32:32;;;;;;;127.40;49.42;;;;;;;-2.20;100.00;100815.41;4899444;28;20521;-86
2023/12/06 04:35:10;;;;;;;145.50;58.88;;;-0.40;99.90;;;-2.16;100.00;100812.88;4909223;28;20118;-86
2023/12/06 04:37:43;;;;;;;132.43;53.95;;;-0.40;99.90;;;-2.15;100.00;100813.72;4906252;28;20042;-85
2023/12/06 04:40:12;;;;;;;116.63;50.10;;;-0.40;99.90;;;-2.16;100.00;100812.88;4844227;28;21956;-86
2023/12/06 04:42:38;;;;;;;131.48;55.97;;;-0.40;99.90;;;-2.18;100.00;100818.84;4893806;28;20045;-87
2023/12/06 04:45:13;;;;;;;131.25;50.72;;;;;;;-2.13;100.00;100819.78;4888696;28;20046;-85
2023/12/06 04:47:41;;;;;;;149.52;57.92;;;-0.40;99.90;;;-2.08;100.00;100820.66;4892715;28;20190;-86
2023/12/06 04:50:31;;;;;;;143.88;56.75;;;-0.40;99.90;;;-2.15;100.00;100812.00;4887704;28;20556;-85
2023/12/06 04:52:57;;;;;;;134.57;54.28;;;;;;;-2.15;100.00;100811.16;4881223;28;20396;-85
2023/12/06 04:55:23;;;;;;;142.80;56.95;;;-0.40;99.90;;;-2.15;100.00;100809.44;4956993;28;20086;-83
2023/12/06 04:57:49;;;;;;;159.32;61.40;;;-0.40;99.90;;;-2.10;100.00;100809.47;4917624;28;20038;-86
2023/12/06 05:00:21;;;;;;;152.18;57.80;;;;;;;-2.07;100.00;100812.06;4904417;28;20030;-85
2023/12/06 05:02:47;;;;;;;120.00;46.15;;;;;;;-2.09;99.80;100806.03;4914559;28;21303;-85
2023/12/06 05:05:13;;;;;;;149.05;57.47;;;-0.40;99.90;;;-2.06;100.00;100811.22;4921209;28;20442;-85
2023/12/06 05:07:42;;;;;;;124.20;44.28;;;;;;;-2.10;99.88;100802.56;4895126;28;20081;-85
2023/12/06 05:10:16;;;;;;;150.18;54.92;;;-0.40;99.90;;;-2.13;100.00;100801.72;4888911;28;20047;-85
2023/12/06 05:12:42;;;;;;;141.18;55.83;;;-0.40;99.90;;;-2.21;100.00;100804.22;4885259;28;20061;-86
2023/12/06 05:15:11;;;;;;;165.40;63.00;;;-0.40;99.90;;;-2.17;99.88;100810.28;4855167;28;20050;-86
2023/12/06 05:17:44;;;;;;;140.15;51.97;;;-0.40;99.90;;;-2.13;100.00;100806.88;4912703;28;20173;-84
2023/12/06 05:20:10;;;;;;;156.25;57.20;;;-0.40;99.90;;;-2.11;100.00;100802.59;4908832;28;20107;-85
2023/12/06 05:22:37;;;;;;;149.05;55.22;;;-0.40;99.90;;;-2.18;100.00;100799.09;4901166;28;20040;-84
2023/12/06 05:25:03;;;;;;;115.95;44.72;;;-0.40;99.90;;;-2.18;100.00;100800.78;4877432;28;20042;-84
2023/12/06 05:27:33;;;;;;;152.23;56.20;;;-0.40;99.90;;;-2.12;100.00;100808.59;4923835;28;20065;-85
2023/12/06 05:30:02;;;;;;;170.43;60.22;;;-0.40;99.90;;;-2.12;100.00;100813.75;4906290;28;21227;-85
2023/12/06 05:32:30;;;;;;;152.50;57.90;;;-0.40;99.90;;;-2.18;100.00;100808.53;4913403;28;20530;-86
2023/12/06 05:35:06;;;;;;;142.35;55.33;;;-0.40;99.90;;;-2.22;100.00;100804.22;4862796;28;20133;-86
2023/12/06 05:37:32;;;;;;;;;;;1.20;99.90;;;-2.27;100.00;100809.34;4901083;28;20042;-86
2023/12/06 05:40:10;;;;;;;158.65;60.15;;;;;;;-2.31;100.00;100800.72;4901974;28;22541;-85
2023/12/06 05:42:38;;;;;;;158.80;56.00;;;-0.50;99.90;;;-2.27;100.00;100805.06;4917856;28;20488;-86
2023/12/06 05:45:12;;;;;;;136.80;51.90;;;-0.50;99.90;;;-2.27;100.00;100799.91;4916093;28;20046;-85
2023/12/06 05:47:41;;;;;;;143.85;55.83;;;;;;;-2.27;100.00;100804.19;4908134;28;20030;-87
2023/12/06 05:50:14;;;;;;;111.57;43.75;;;-0.50;99.90;;;-2.31;100.00;100805.00;4892600;28;20192;-85
2023/12/06 05:52:43;;;;;;;163.85;57.55;;;;;;;-2.34;100.00;100811.00;4890805;28;20050;-84
2023/12/06 05:55:09;;;;;;;181.95;67.45;;;-0.50;99.90;;;-2.29;100.00;100818.78;4906844;28;20124;-83
2023/12/06 05:57:35;;;;;;;150.27;54.72;;;-0.50;99.90;;;-2.27;100.00;100815.38;4920362;28;20038;-84
2023/12/06 06:00:22;;;;;;;130.45;49.22;;;-0.50;99.90;;;-2.30;100.00;100817.91;4945357;28;20031;-83
2023/12/06 06:02:55;;;;;;;149.60;57.80;;;-0.50;99.90;;;-2.28;100.00;100820.53;4921970;28;20026;-85
2023/12/06 06:05:41;;;;;;;144.45;53.80;;;-0.50;99.90;;;-2.28;100.00;100825.69;4949732;28;20175;-84
2023/12/06 06:08:12;;;;;;;152.50;59.33;;;-0.60;99.90;;;-2.30;100.00;100820.50;4874132;28;20673;-84
2023/12/06 06:10:38;;;;;;;161.73;62.60;;;;;;;-2.24;100.00;100824.00;4860615;28;20046;-84
2023/12/06 06:13:12;;;;;;;148.60;58.83;;;;;;;-2.25;100.00;100823.09;4868145;28;20034;-84
2023/12/06 06:15:39;;;;;;;168.55;63.17;;;;;;;-2.22;100.00;100823.16;4893671;28;20031;-84
2023/12/06 06:18:05;;;;;;;162.43;61.75;;;-0.50;99.90;;;-2.20;100.00;100823.13;4928564;28;20050;-83
2023/12/06 06:20:41;;;;;;;163.55;60.22;;;;;;;-2.19;100.00;100824.88;4943018;28;20074;-84
2023/12/06 06:23:07;;;;;;;163.85;62.00;;;-0.50;99.90;;;-2.18;100.00;100821.44;4900467;28;20039;-84
2023/12/06 06:25:33;;;;;;;166.95;64.18;;;-0.40;99.90;;;-2.18;100.00;100818.84;4940712;28;20046;-84
2023/12/06 06:27:59;;;;;;;173.60;66.47;;;-0.40;99.90;;;-2.17;100.00;100815.44;4853797;28;20053;-84
2023/12/06 06:30:34;;;;;;;167.82;65.15;;;;;;;-2.12;100.00;100822.34;4881179;28;20758;-84
2023/12/06 06:33:03;;;;;;;152.40;56.75;;;;;;;-2.13;100.00;100830.94;4883103;28;20055;-85
2023/12/06 06:35:29;;;;;;;159.13;60.10;;;;;;;-2.13;100.00;100823.19;4883521;28;20117;-84
2023/12/06 06:38:01;;;;;;;168.77;63.03;;;;;;;-2.12;100.00;100824.06;4892393;28;21274;-85
2023/12/06 06:40:27;;;;;;;91.20;32.08;;;-0.40;99.90;;;-2.17;100.00;100828.34;4883526;28;20030;-87
2023/12/06 06:42:54;;;;;;;170.15;64.60;;;-0.40;99.90;;;-2.19;100.00;100830.03;4911798;28;20093;-84
2023/12/06 06:45:28;;;;;;;168.95;63.47;;;;;;;-2.12;100.00;100827.50;4857805;28;20049;-85
2023/12/06 06:47:54;;;;;;;155.38;59.25;;;-0.40;99.90;;;-2.12;100.00;100824.91;4918338;28;20171;-84
2023/12/06 06:50:21;;;;;;;164.13;62.42;;;;;;;-2.10;100.00;100825.78;4896471;28;20137;-84
2023/12/06 06:52:47;;;;;;;153.80;60.60;;;;;;;-2.07;100.00;100833.56;4897970;28;20468;-85
2023/12/06 06:55:17;;;;;;;173.50;61.10;;;-0.30;99.90;;;-2.04;100.00;100829.28;4889746;28;20100;-84
2023/12/06 06:57:43;;;;;;;142.13;48.80;;;-0.40;99.90;;;-2.09;100.00;100830.13;4876552;28;20044;-84
2023/12/06 07:00:13;;;;;;;160.57;61.15;;;;;;;-2.09;100.00;100837.00;4920892;28;20035;-85
2023/12/06 07:02:39;;;;;;;155.60;59.13;;;;;;;-2.10;100.00;100837.84;4894816;28;20549;-85
2023/12/06 07:05:14;;;;;;;135.82;51.03;;;;;;;-2.13;100.00;100837.81;4869501;28;20035;-84
2023/12/06 07:07:43;;;;;;;156.80;53.80;;;-0.40;99.90;;;-2.13;100.00;100843.00;4931723;28;20041;-85
2023/12/06 07:10:16;;;;;;;167.02;64.32;;;-0.40;99.90;;;-2.13;100.00;100840.41;4870948;28;20062;-84
2023/12/06 07:12:42;;;;;;;168.10;62.60;;;-0.40;99.90;;;-2.13;100.00;100835.25;4908865;28;20094;-84
2023/12/06 07:15:14;;;;;;;152.02;57.85;;;-0.40;99.90;;;-2.12;100.00;100840.41;4884742;28;20096;-84
2023/12/06 07:17:45;;;;;;;167.20;62.33;;;-0.40;99.90;;;-2.15;100.00;100837.81;4879364;28;20031;-84
2023/12/06 07:20:12;;;;;;;174.55;66.63;;;-0.40;99.90;;;-2.11;100.00;100847.31;4890720;28;20626;-84
2023/12/06 07:22:46;;;;;;;155.80;59.28;;;-0.40;99.90;;;-2.11;100.00;100846.44;4938832;28;20041;-84
2023/12/06 07:25:15;;;;;;;171.60;64.80;;;-0.40;99.90;;;-2.12;100.00;100842.13;4966002;28;20039;-84
2023/12/06 07:28:24;;;;;;;165.48;60.42;;;-0.40;99.90;;;-2.08;100.00;100856.78;4889214;28;20052;-84
2023/12/06 07:30:31;;;;;;;159.23;60.15;;;;;;;-2.12;100.00;100850.72;4880150;28;20055;-85
2023/12/06 07:32:57;;;;;;;162.65;62.65;;;-0.40;99.90;;;-2.10;100.00;100859.34;4917865;28;20037;-85
2023/12/06 07:35:23;;;;;;;158.05;62.47;;;-0.40;99.90;;;-2.11;99.95;100864.50;4879152;28;20031;-84
2023/12/06 07:37:49;;;;;;;144.43;58.22;;;;;;;-2.09;100.00;100865.38;4895947;28;20578;-84
2023/12/06 07:40:15;;;;;;;160.95;63.10;;;-0.40;99.90;;;-2.06;99.94;100873.13;4892623;28;20173;-82
2023/12/06 07:42:50;;;;;;;166.23;62.67;;;;;;;-2.04;100.00;100868.84;4921346;28;20034;-84
2023/12/06 07:45:16;;;;;;;159.48;59.53;;;-0.40;99.90;;;-2.07;99.99;100869.69;4889502;28;20126;-84
2023/12/06 07:47:42;;;;;;;160.15;61.55;;;-0.40;99.90;;;-2.10;99.47;100872.22;4895647;28;20035;-83
2023/12/06 07:50:20;;;;;;;160.60;62.80;;;-0.30;99.90;;;-2.05;99.96;100872.28;4894439;28;20036;-84
2023/12/06 07:52:47;;;;;;;160.98;62.63;;;-0.40;99.90;;;-2.09;100.00;100873.97;4894907;28;20043;-84
2023/12/06 07:55:20;;;;;;;154.90;60.47;;;-0.30;99.90;;;-2.03;99.74;100877.44;4879883;28;20074;-84
2023/12/06 07:57:46;;;;;;;154.30;58.95;;;-0.30;99.90;;;-2.02;99.82;100880.03;4893113;28;20047;-82
2023/12/06 08:00:22;;;;;;;162.10;60.40;;;-0.30;99.90;;;-2.03;99.70;100873.19;4864726;28;20031;-83
2023/12/06 08:02:48;;;;;;;154.65;58.97;;;-0.30;99.90;;;-2.00;99.47;100875.75;4924914;28;20034;-84
2023/12/06 08:05:19;;;;;;;160.32;58.20;;;-0.30;99.90;;;-2.02;99.88;100880.03;4900439;28;20130;-84
2023/12/06 08:07:52;;;;;;;157.65;62.78;;;;;;;-1.98;99.87;100883.53;4920753;28;20588;-83
2023/12/06 08:10:22;;;;;;;146.15;55.15;;;-0.30;99.90;;;-1.97;99.91;100874.91;4919893;28;20082;-84
2023/12/06 08:12:54;;;;;;;158.27;57.80;;;-0.20;99.90;;;-1.95;99.90;100881.81;4911275;28;20041;-84
2023/12/06 08:15:22;;;;;;;131.05;50.08;;;;;;;-1.99;100.00;100887.78;4884893;28;20038;-84
2023/12/06 08:17:48;;;;;;;144.32;59.60;;;-0.20;99.90;;;-1.98;99.90;100884.38;4878556;28;20047;-84
2023/12/06 08:20:14;;;;;;;153.88;63.58;;;-0.20;99.90;;;-1.94;100.00;100886.13;4864742;28;20050;-84
2023/12/06 08:22:45;;;;;;;148.88;59.42;;;;;;;-1.93;99.88;100882.69;4894687;28;20050;-85
2023/12/06 08:25:11;;;;;;;149.77;58.22;;;;;;;-1.92;100.00;100879.28;4860717;28;20055;-86
2023/12/06 08:27:38;;;;;;;152.65;58.65;;;-0.20;99.90;;;-1.89;99.86;100886.16;4911860;28;20558;-83
2023/12/06 08:30:06;;;;;;;148.02;57.15;;;-0.20;99.90;;;-1.90;100.00;100884.41;4913831;28;20517;-84
2023/12/06 08:32:40;;;;;;;155.02;62.63;;;-0.20;99.90;;;-1.96;100.00;100879.25;4904428;28;20046;-83
2023/12/06 08:35:07;;;;;;;158.40;59.08;;;-0.20;99.90;;;-1.90;100.00;100887.88;4882977;28;20494;-84
2023/12/06 08:37:32;;;;;;;169.02;66.38;;;-0.20;99.90;;;-1.89;100.00;100889.59;4928837;28;20069;-84
2023/12/06 08:39:59;;;;;;;171.23;65.00;;;;;;;-1.84;100.00;100887.03;4911035;28;20464;-84
2023/12/06 08:42:32;;;;;;;155.40;60.28;;;-0.10;99.90;;;-1.83;100.00;100877.59;4928868;28;20037;-83
2023/12/06 08:45:01;;;;;;;144.63;57.80;;;-0.10;99.90;;;-1.82;100.00;100876.75;4905024;28;20046;-84
2023/12/06 08:47:27;;;;;;;153.48;62.78;;;-0.10;99.90;;;-1.78;100.00;100878.50;4890200;28;20030;-83
2023/12/06 08:49:53;;;;;;;167.38;67.03;;;;;;;-1.74;100.00;100882.81;4895825;28;20043;-86
2023/12/06 08:52:22;;;;;;;158.32;64.68;;;-0.10;99.90;;;-1.76;100.00;100879.38;4917963;28;20047;-84
2023/12/06 08:54:48;;;;;;;167.20;63.50;;;0.00;99.90;;;-1.76;100.00;100885.38;4892996;28;20045;-83
2023/12/06 08:57:14;;;;;;;157.02;63.05;;;-0.10;99.90;;;-1.73;100.00;100887.13;4877062;28;20528;-82
2023/12/06 08:59:42;;;;;;;148.05;54.50;;;0.00;99.90;;;-1.73;100.00;100890.59;4922015;28;20036;-84
2023/12/06 09:02:17;;;;;;;155.85;61.33;;;0.00;99.90;;;-1.70;100.00;100900.91;4919057;28;20057;-84
2023/12/06 09:04:43;;;;;;;96.65;34.72;;;0.00;99.90;;;-1.79;100.00;100887.97;4897105;28;20043;-83
2023/12/06 09:07:23;;;;;;;101.78;38.28;;;-0.10;99.90;;;-1.82;99.87;100894.81;4878735;28;20043;-84
2023/12/06 09:09:58;;;;;;;164.02;63.67;;;-0.10;99.90;;;-1.78;99.71;100896.56;4906733;28;22237;-84
2023/12/06 09:12:24;;;;;;;167.43;61.85;;;-0.10;99.90;;;-1.81;100.00;100893.94;4901724;28;20036;-84
2023/12/06 09:14:50;;;;;;;168.90;67.82;;;-0.10;99.90;;;-1.88;100.00;100891.34;4923987;28;20041;-84
2023/12/06 09:17:16;;;;;;;167.85;67.75;;;-0.10;99.90;;;-1.84;99.33;100904.25;4906717;28;20467;-84
2023/12/06 09:19:52;;;;;;;184.77;67.18;;;-0.20;99.90;;;-1.81;99.71;100906.84;4890921;28;20031;-83
2023/12/06 09:22:22;;;;;;;181.73;69.00;;;;;;;-1.80;99.83;100917.19;4920795;28;20103;-84
2023/12/06 09:24:56;;;;;;;146.85;54.05;;;;;;;-1.92;99.88;100917.97;4928617;28;20126;-83
2023/12/06 09:27:22;;;;;;;175.23;65.95;;;;;;;-1.91;99.37;100921.41;4893685;28;20038;-83
2023/12/06 09:29:51;;;;;;;175.10;68.68;;;-0.20;99.90;;;-1.93;99.55;100913.66;4936192;28;20496;-84
2023/12/06 09:32:23;;;;;;;175.00;68.15;;;;;;;-1.96;98.68;100918.81;4905448;28;20035;-82
2023/12/06 09:34:53;;;;;;;186.00;71.60;;;;;;;-2.00;99.02;100917.06;4920136;28;20034;-83
2023/12/06 09:37:22;;;;;;;183.82;68.70;;;;;;;-1.92;99.15;100919.72;4938938;28;20034;-83
2023/12/06 09:39:51;;;;;;;178.02;66.88;;;;;;;-1.88;98.93;100917.16;4908348;28;20055;-84
2023/12/06 09:42:22;;;;;;;177.25;69.07;;;-0.20;99.90;;;-1.93;99.37;100908.50;4892872;28;20042;-85
2023/12/06 09:45:01;;;;;;;179.38;65.47;;;;;;;-1.84;98.79;100910.28;4875012;28;20510;-85
2023/12/06 09:47:34;;;;;;;169.65;65.65;;;;;;;-1.87;99.53;100915.44;4914704;28;20042;-84
2023/12/06 09:50:04;;;;;;;175.70;63.22;;;-0.10;99.90;;;-1.82;99.43;100918.03;4903666;28;20040;-84
2023/12/06 09:52:30;;;;;;;191.70;71.43;;;-0.10;99.90;;;-1.81;99.40;100922.34;4891452;28;20035;-85
2023/12/06 09:55:06;;;;;;;191.05;70.55;;;-0.10;99.90;;;-1.80;98.92;100912.03;4881382;28;20042;-84
2023/12/06 09:57:34;;;;;;;163.88;56.63;;;-0.10;99.90;;;-1.77;98.46;100924.09;4869018;28;20051;-85
2023/12/06 10:00:06;;;;;;;187.52;69.47;;;-0.10;99.90;;;-1.72;98.92;100925.00;4896642;28;20576;-84
2023/12/06 10:02:49;;;;;;;189.93;72.93;;;-0.10;99.90;;;-1.71;98.29;100922.41;4896475;28;20118;-85
2023/12/06 10:05:15;;;;;;;188.02;73.20;;;0.00;99.90;;;-1.64;98.58;100925.94;4915193;28;20052;-82
2023/12/06 10:07:42;;;;;;;182.75;69.38;;;0.00;99.90;;;-1.58;98.26;100927.66;4923454;28;20049;-84
2023/12/06 10:10:21;;;;;;;188.82;69.40;;;0.10;99.90;;;-1.55;98.02;100931.16;4902990;28;20056;-83
2023/12/06 10:13:01;;;;;;;192.73;72.30;;;0.00;99.90;;;-1.66;97.65;100922.47;4922493;28;20088;-82
2023/12/06 10:15:42;;;;;;;185.02;73.50;;;0.00;99.90;;;-1.66;97.46;100919.88;4933637;28;20034;-83
2023/12/06 10:18:13;;;;;;;174.27;61.05;;;;;;;-1.66;97.11;100928.50;4919941;28;20077;-85
2023/12/06 10:20:43;;;;;;;164.00;60.20;;;0.10;99.90;;;-1.61;96.80;100917.34;4913388;28;20085;-84
2023/12/06 10:23:23;;;;;;;151.73;56.35;;;0.10;99.90;;;-1.61;97.40;100919.91;4939276;28;20579;-83
2023/12/06 10:25:50;;;;;;;179.57;71.28;;;0.00;99.90;;;-1.63;97.18;100906.97;4925040;28;20528;-84
2023/12/06 10:28:26;;;;;;;92.18;28.90;;;0.10;99.90;;;-1.73;97.25;100915.50;4914976;28;20035;-85